Time;durP1;ratioP1;P1;durP2;ratioP2;P2;SDS_P1;SDS_P2;PMS_P1;PMS_P2;Temp;Humidity;BMP_temperature;BMP_pressure;BME280_temperature;BME280_humidity;BME280_pressure;Samples;Min_cycle;Max_cycle;Signal;HPM_P1;HPM_P2
2021/05/04 00:02:05;;;;;;;5.93;3.80;;;;;;;-141.50;100.00;63355.56;5079785;28;20063;-78
2021/05/04 00:04:32;;;;;;;9.23;3.97;;;;;;;-141.50;100.00;63355.56;5100909;28;20323;-79
2021/05/04 00:06:58;;;;;;;7.78;3.90;;;;;;;-141.50;100.00;63355.56;5101737;28;20055;-80
2021/05/04 00:09:25;;;;;;;9.18;4.20;;;;;;;-141.50;100.00;63355.56;5083813;28;20517;-79
2021/05/04 00:11:51;;;;;;;7.25;3.90;;;;;;;-141.50;100.00;63355.56;5082572;28;20055;-78
2021/05/04 00:14:18;;;;;;;5.82;3.53;;;;;;;-141.50;100.00;63355.56;5099845;28;20402;-79
2021/05/04 00:16:44;;;;;;;10.90;4.50;;;;;;;-141.50;100.00;63355.56;5112445;28;20035;-78
2021/05/04 00:19:10;;;;;;;9.38;4.13;;;;;;;-141.50;100.00;63355.56;5089944;28;20052;-79
2021/05/04 00:21:37;;;;;;;8.57;4.03;;;;;;;-141.50;100.00;63355.56;5064985;28;20287;-81
2021/05/04 00:24:04;;;;;;;9.38;3.80;;;;;;;-141.50;100.00;63355.56;5099126;28;20044;-79
2021/05/04 00:26:31;;;;;;;8.35;4.25;;;;;;;-141.50;100.00;63355.56;5095466;28;20040;-80
2021/05/04 00:28:57;;;;;;;6.80;4.00;;;;;;;-141.50;100.00;63355.56;5097722;28;20055;-80
2021/05/04 00:31:23;;;;;;;5.80;4.05;;;;;;;-141.50;100.00;63355.56;5065464;28;20040;-80
2021/05/04 00:33:49;;;;;;;6.75;4.05;;;;;;;-141.50;100.00;63355.56;5079955;28;20123;-79
2021/05/04 00:36:15;;;;;;;7.97;4.20;;;;;;;-141.50;100.00;63355.56;5099931;28;20048;-80
2021/05/04 00:38:41;;;;;;;9.18;4.45;;;;;;;-141.50;100.00;63355.56;5096843;28;20040;-78
2021/05/04 00:41:07;;;;;;;8.70;3.97;;;;;;;-141.50;100.00;63355.56;5098322;28;20051;-79
2021/05/04 00:43:33;;;;;;;7.60;3.80;;;;;;;-141.50;100.00;63355.56;5079324;28;20040;-79
2021/05/04 00:46:00;;;;;;;6.22;3.85;;;;;;;-141.50;100.00;63355.56;5097010;28;20127;-80
2021/05/04 00:48:28;;;;;;;7.15;4.25;;;;;;;-141.50;100.00;63355.56;5097666;28;20422;-81
2021/05/04 00:50:55;;;;;;;12.93;4.40;;;;;;;-141.50;100.00;63355.56;5081534;28;20036;-79
2021/05/04 00:53:21;;;;;;;7.68;4.15;;;;;;;-141.50;100.00;63355.56;5097047;28;20043;-78
2021/05/04 00:55:48;;;;;;;7.20;4.38;;;;;;;-141.50;100.00;63355.56;5109173;28;20047;-79
2021/05/04 00:58:14;;;;;;;8.55;4.47;;;;;;;-141.50;100.00;63355.56;5095578;28;20114;-79
2021/05/04 01:00:41;;;;;;;7.25;4.20;;;;;;;-141.50;100.00;63355.56;5104581;28;20036;-80
2021/05/04 01:03:09;;;;;;;10.82;4.35;;;;;;;-141.50;100.00;63355.56;5097119;28;20043;-79
2021/05/04 01:05:36;;;;;;;6.90;4.03;;;;;;;-141.50;100.00;63355.56;5100505;28;20044;-80
2021/05/04 01:08:02;;;;;;;8.98;4.38;;;;;;;-141.50;100.00;63355.56;5100266;28;20054;-80
2021/05/04 01:10:30;;;;;;;7.32;4.30;;;;;;;-141.50;100.00;63355.56;5099648;28;20058;-79
2021/05/04 01:12:57;;;;;;;15.85;4.57;;;;;;;-141.50;100.00;63355.56;5092319;28;20059;-79
2021/05/04 01:15:24;;;;;;;7.82;4.22;;;;;;;-141.50;100.00;63355.56;5092774;28;20411;-78
2021/05/04 01:17:50;;;;;;;7.50;4.03;;;;;;;-141.50;100.00;63355.56;5094053;28;20044;-79
2021/05/04 01:20:16;;;;;;;9.00;4.30;;;;;;;-141.50;100.00;63355.56;5076775;28;20047;-79
2021/05/04 01:22:42;;;;;;;7.85;4.00;;;;;;;-141.50;100.00;63355.56;5076152;28;20032;-79
2021/05/04 01:25:09;;;;;;;9.07;4.18;;;;;;;-141.50;100.00;63355.56;5096027;28;20059;-78
2021/05/04 01:27:35;;;;;;;8.77;4.15;;;;;;;-141.50;100.00;63355.56;5104079;28;20491;-79
2021/05/04 01:30:04;;;;;;;14.10;4.38;;;;;;;-141.50;100.00;63355.56;5091695;28;20526;-79
2021/05/04 01:32:30;;;;;;;9.10;4.57;;;;;;;-141.50;100.00;63355.56;5100608;28;20538;-80
2021/05/04 01:34:57;;;;;;;6.72;4.28;;;;;;;-141.50;100.00;63355.56;5087581;28;20043;-78
2021/05/04 01:37:24;;;;;;;7.72;4.32;;;;;;;-141.50;100.00;63355.56;5104352;28;20051;-79
2021/05/04 01:39:52;;;;;;;8.80;4.22;;;;;;;-141.50;100.00;63355.56;5089089;28;20161;-79
2021/05/04 01:42:21;;;;;;;9.73;4.40;;;;;;;-141.50;100.00;63355.56;5105446;28;20047;-79
2021/05/04 01:44:47;;;;;;;7.25;4.00;;;;;;;-141.50;100.00;63355.56;5081844;28;20234;-78
2021/05/04 01:47:13;;;;;;;8.57;4.30;;;;;;;-141.50;100.00;63355.56;5100208;28;20715;-80
2021/05/04 01:49:43;;;;;;;9.63;4.68;;;;;;;-141.50;100.00;63355.56;5093154;28;20097;-79
2021/05/04 01:52:10;;;;;;;8.27;4.63;;;;;;;-141.50;100.00;63355.56;5095526;28;20334;-79
2021/05/04 01:54:37;;;;;;;10.88;4.63;;;;;;;-141.50;100.00;63355.56;5078981;28;20048;-79
2021/05/04 01:57:04;;;;;;;10.27;4.18;;;;;;;-141.50;100.00;63355.56;5080911;28;20491;-78
2021/05/04 01:59:30;;;;;;;9.00;4.28;;;;;;;-141.50;100.00;63355.56;5101510;28;20539;-79
2021/05/04 02:01:57;;;;;;;7.20;4.07;;;;;;;-141.50;100.00;63355.56;5081434;28;20036;-79
2021/05/04 02:04:24;;;;;;;7.40;4.38;;;;;;;-141.50;100.00;63355.56;5106644;28;20052;-78
2021/05/04 02:06:52;;;;;;;8.65;4.00;;;;;;;-141.50;100.00;63355.56;5085233;28;20048;-77
2021/05/04 02:09:18;;;;;;;11.20;4.40;;;;;;;-141.50;100.00;63355.56;5105713;28;20048;-80
2021/05/04 02:11:44;;;;;;;6.95;4.10;;;;;;;-141.50;100.00;63355.56;5086775;28;20051;-80
2021/05/04 02:14:10;;;;;;;8.90;4.65;;;;;;;-141.50;100.00;63355.56;5105353;28;20055;-78
2021/05/04 02:16:37;;;;;;;7.80;4.43;;;;;;;-141.50;100.00;63355.56;5069950;28;20048;-78
2021/05/04 02:19:03;;;;;;;8.07;4.50;;;;;;;-141.50;100.00;63355.56;5085757;28;20068;-78
2021/05/04 02:21:30;;;;;;;7.68;4.47;;;;;;;-141.50;100.00;63355.56;5089981;28;20040;-78
2021/05/04 02:23:56;;;;;;;10.95;4.63;;;;;;;-141.50;100.00;63355.56;5104833;28;20040;-78
2021/05/04 02:26:24;;;;;;;9.07;4.90;;;;;;;-141.50;100.00;63355.56;5095212;28;20044;-78
2021/05/04 02:28:50;;;;;;;9.00;5.00;;;;;;;-141.50;100.00;63355.56;5108319;28;20028;-78
2021/05/04 02:31:16;;;;;;;13.60;4.60;;;;;;;-141.50;100.00;63355.56;5115179;28;20028;-78
2021/05/04 02:33:44;;;;;;;9.65;5.10;;;;;;;-141.50;100.00;63355.56;5074597;28;20050;-78
2021/05/04 02:36:11;;;;;;;11.10;4.97;;;;;;;-141.50;100.00;63355.56;5096427;28;20044;-79
2021/05/04 02:38:37;;;;;;;10.00;5.13;;;;;;;-141.50;100.00;63355.56;5094354;28;20044;-78
2021/05/04 02:41:05;;;;;;;7.80;4.78;;;;;;;-141.50;100.00;63355.56;5094270;28;20032;-79
2021/05/04 02:43:32;;;;;;;9.88;5.43;;;;;;;-141.50;100.00;63355.56;5093020;28;20517;-79
2021/05/04 02:45:59;;;;;;;10.00;4.93;;;;;;;-141.50;100.00;63355.56;5090604;28;20040;-78
2021/05/04 02:48:26;;;;;;;9.15;5.50;;;;;;;-141.50;100.00;63355.56;5073893;28;20047;-77
2021/05/04 02:50:52;;;;;;;9.30;5.30;;;;;;;-141.50;100.00;63355.56;5093185;28;20048;-79
2021/05/04 02:53:18;;;;;;;11.63;5.68;;;;;;;-141.50;100.00;63355.56;5091591;28;20052;-79
2021/05/04 02:55:44;;;;;;;9.90;5.57;;;;;;;-141.50;100.00;63355.56;5117258;28;20016;-79
2021/05/04 02:58:12;;;;;;;8.07;5.28;;;;;;;-141.50;100.00;63355.56;5095084;28;20044;-79
2021/05/04 03:00:38;;;;;;;10.15;5.97;;;;;;;-141.50;100.00;63355.56;5082213;28;20043;-79
2021/05/04 03:03:04;;;;;;;11.73;5.80;;;;;;;-141.50;100.00;63355.56;5091719;28;20109;-77
2021/05/04 03:05:31;;;;;;;9.98;5.72;;;;;;;-141.50;100.00;63355.56;5094188;28;20483;-79
2021/05/04 03:08:03;;;;;;;9.45;5.75;;;;;;;-141.50;100.00;63355.56;5076309;28;20059;-79
2021/05/04 03:10:29;;;;;;;11.77;6.40;;;;;;;-141.50;100.00;63355.56;5092024;28;20036;-78
2021/05/04 03:12:55;;;;;;;14.65;6.18;;;;;;;-141.50;100.00;63355.56;5072868;28;20040;-80
2021/05/04 03:15:21;;;;;;;11.18;6.30;;;;;;;-141.50;100.00;63355.56;5073177;28;20052;-80
2021/05/04 03:17:48;;;;;;;9.38;6.00;;;;;;;-141.50;100.00;63355.56;5095026;28;20072;-79
2021/05/04 03:20:15;;;;;;;11.20;6.35;;;;;;;-141.50;100.00;63355.56;5096088;28;20032;-79
2021/05/04 03:22:42;;;;;;;11.20;6.10;;;;;;;-141.50;100.00;63355.56;5092623;28;20057;-79
2021/05/04 03:25:08;;;;;;;10.77;6.20;;;;;;;-141.50;100.00;63355.56;5093648;28;20055;-79
2021/05/04 03:27:35;;;;;;;11.35;6.00;;;;;;;-141.50;100.00;63355.56;5093818;28;20047;-80
2021/05/04 03:30:02;;;;;;;12.98;6.30;;;;;;;-141.50;100.00;63355.56;5077146;28;20056;-80
2021/05/04 03:32:28;;;;;;;12.45;5.85;;;;;;;-141.50;100.00;63355.56;5093330;28;20269;-79
2021/05/04 03:34:54;;;;;;;10.68;6.20;;;;;;;-141.50;100.00;63355.56;5091526;28;20083;-79
2021/05/04 03:37:20;;;;;;;14.43;5.82;;;;;;;-141.50;100.00;63355.56;5091673;28;20051;-79
2021/05/04 03:39:46;;;;;;;10.25;5.90;;;;;;;-141.50;100.00;63355.56;5074143;28;20419;-80
2021/05/04 03:42:12;;;;;;;10.70;5.90;;;;;;;-141.50;100.00;63355.56;5076932;28;20047;-79
2021/05/04 03:44:38;;;;;;;11.80;5.68;;;;;;;-141.50;100.00;63355.56;5093505;28;20044;-79
2021/05/04 03:47:05;;;;;;;12.27;5.80;;;;;;;-141.50;100.00;63355.56;5095650;28;20055;-79
2021/05/04 03:49:31;;;;;;;12.38;6.28;;;;;;;-141.50;100.00;63355.56;5093248;28;20084;-78
2021/05/04 03:51:57;;;;;;;12.80;6.25;;;;;;;-141.50;100.00;63355.56;5095640;28;20044;-79
2021/05/04 03:54:23;;;;;;;10.75;6.05;;;;;;;-141.50;100.00;63355.56;5095480;28;20044;-78
2021/05/04 03:56:50;;;;;;;13.70;6.35;;;;;;;-141.50;100.00;63355.56;5094758;28;20122;-78
2021/05/04 03:59:16;;;;;;;14.13;6.60;;;;;;;-141.50;100.00;63355.56;5074383;28;20063;-79
2021/05/04 04:01:42;;;;;;;13.60;6.60;;;;;;;-141.50;100.00;63355.56;5076746;28;20040;-79
2021/05/04 04:04:08;;;;;;;16.35;5.95;;;;;;;-141.50;100.00;63355.56;5092484;28;20075;-79
2021/05/04 04:06:34;;;;;;;9.90;6.22;;;;;;;-141.50;100.00;63355.56;5093350;28;20047;-79
2021/05/04 04:09:00;;;;;;;13.00;6.25;;;;;;;-141.50;100.00;63355.56;5096665;28;20032;-77
2021/05/04 04:11:26;;;;;;;14.77;6.78;;;;;;;-141.50;100.00;63355.56;5078956;28;20040;-77
2021/05/04 04:13:52;;;;;;;11.73;6.20;;;;;;;-141.50;100.00;63355.56;5091655;28;20492;-78
2021/05/04 04:16:18;;;;;;;11.52;6.53;;;;;;;-141.50;100.00;63355.56;5125339;23;20023;-80
2021/05/04 04:18:44;;;;;;;10.43;6.22;;;;;;;-141.50;100.00;63355.56;5074709;28;20036;-77
2021/05/04 04:21:11;;;;;;;11.25;6.50;;;;;;;-141.50;100.00;63355.56;5075100;28;20131;-81
2021/05/04 04:23:37;;;;;;;17.40;6.68;;;;;;;-141.50;100.00;63355.56;5078709;28;20063;-81
2021/05/04 04:26:03;;;;;;;10.00;6.05;;;;;;;-141.50;100.00;63355.56;5082716;28;20044;-78
2021/05/04 04:28:32;;;;;;;12.80;6.85;;;;;;;-141.50;100.00;63355.56;5099603;28;20086;-80
2021/05/04 04:30:58;;;;;;;12.63;6.88;;;;;;;-141.50;100.00;63355.56;5116757;28;20039;-80
2021/05/04 04:33:25;;;;;;;11.10;6.63;;;;;;;-141.50;100.00;63355.56;5122061;28;20031;-79
2021/05/04 04:35:52;;;;;;;11.65;6.57;;;;;;;-141.50;100.00;63355.56;5096224;28;20066;-78
2021/05/04 04:38:19;;;;;;;12.68;6.47;;;;;;;-141.50;100.00;63355.56;5080353;28;20062;-78
2021/05/04 04:40:46;;;;;;;13.45;6.53;;;;;;;-141.50;100.00;63355.56;5097150;28;20039;-79
2021/05/04 04:43:13;;;;;;;12.55;6.85;;;;;;;-141.50;100.00;63355.56;5098546;28;20092;-79
2021/05/04 04:45:39;;;;;;;10.50;5.93;;;;;;;-141.50;100.00;63355.56;5099961;28;20055;-79
2021/05/04 04:48:06;;;;;;;10.77;6.72;;;;;;;-141.50;100.00;63355.56;5099089;28;20097;-80
2021/05/04 04:50:33;;;;;;;10.40;5.80;;;;;;;-141.50;100.00;63355.56;5098831;28;20059;-80
2021/05/04 04:52:59;;;;;;;14.02;6.05;;;;;;;-141.50;100.00;63355.56;5099936;28;20046;-80
2021/05/04 04:55:26;;;;;;;10.65;6.45;;;;;;;-141.50;100.00;63355.56;5100860;28;20051;-81
2021/05/04 04:57:52;;;;;;;12.98;6.40;;;;;;;-141.50;100.00;63355.56;5121105;28;20613;-80
2021/05/04 05:00:19;;;;;;;10.13;6.07;;;;;;;-141.50;100.00;63355.56;5106251;28;20039;-82
2021/05/04 05:02:46;;;;;;;11.48;6.47;;;;;;;-141.50;100.00;63355.56;5109187;28;20111;-81
2021/05/04 05:05:13;;;;;;;12.65;6.00;;;;;;;-141.50;100.00;63355.56;5091835;28;20163;-80
2021/05/04 05:07:39;;;;;;;11.57;5.68;;;;;;;-141.50;100.00;63355.56;5113592;28;20422;-81
2021/05/04 05:10:06;;;;;;;9.80;6.18;;;;;;;-141.50;100.00;63355.56;5074640;28;20052;-83
2021/05/04 05:12:32;;;;;;;9.05;5.75;;;;;;;-141.50;100.00;63355.56;5063557;28;20044;-83
2021/05/04 05:15:02;;;;;;;10.38;6.10;;;;;;;-141.50;100.00;63355.56;5115554;28;20513;-82
2021/05/04 05:17:32;;;;;;;10.00;5.70;;;;;;;-141.50;100.00;63355.56;5076334;28;20052;-82
2021/05/04 05:19:58;;;;;;;11.73;5.68;;;;;;;-141.50;100.00;63355.56;5083376;28;20062;-83
2021/05/04 05:22:26;;;;;;;9.48;5.57;;;;;;;-141.50;100.00;63355.56;5097044;28;20511;-81
2021/05/04 05:24:54;;;;;;;15.07;5.80;;;;;;;-141.50;100.00;63355.56;5071973;28;20504;-81
2021/05/04 05:27:21;;;;;;;9.45;5.60;;;;;;;-141.50;100.00;63355.56;5092712;28;20047;-80
2021/05/04 05:29:48;;;;;;;8.50;5.15;;;;;;;-141.50;100.00;63355.56;5083600;28;20504;-82
2021/05/04 05:32:18;;;;;;;10.30;5.57;;;;;;;-141.50;100.00;63355.56;5065081;28;20047;-81
2021/05/04 05:34:45;;;;;;;10.40;5.43;;;;;;;-141.50;100.00;63355.56;5076134;28;20048;-81
2021/05/04 05:37:11;;;;;;;8.70;4.90;;;;;;;-141.50;100.00;63355.56;5075608;28;20048;-82
2021/05/04 05:39:42;;;;;;;10.23;5.60;;;;;;;-141.50;100.00;63355.56;5094769;28;20059;-82
2021/05/04 05:42:14;;;;;;;8.23;4.95;;;;;;;-141.50;100.00;63355.56;5092369;28;20074;-82
2021/05/04 05:44:42;;;;;;;9.38;5.22;;;;;;;-141.50;100.00;63355.56;5075743;28;20103;-80
2021/05/04 05:47:08;;;;;;;9.63;5.00;;;;;;;-141.50;100.00;63355.56;5097133;28;20058;-83
2021/05/04 05:49:37;;;;;;;8.35;4.88;;;;;;;-141.50;100.00;63355.56;5076212;28;20070;-79
2021/05/04 05:52:05;;;;;;;10.10;5.00;;;;;;;-141.50;100.00;63355.56;5087682;28;20063;-81
2021/05/04 05:54:32;;;;;;;10.23;4.97;;;;;;;-141.50;100.00;63355.56;5101545;28;20051;-83
2021/05/04 05:56:58;;;;;;;8.15;4.78;;;;;;;-141.50;100.00;63355.56;5070862;28;20047;-82
2021/05/04 05:59:24;;;;;;;9.93;4.95;;;;;;;-141.50;100.00;63355.56;5069926;28;20039;-82
2021/05/04 06:01:50;;;;;;;10.20;5.53;;;;;;;-141.50;100.00;63355.56;5103177;28;20036;-83
2021/05/04 06:04:16;;;;;;;9.05;5.38;;;;;;;-141.50;100.00;63355.56;5101964;28;20109;-82
2021/05/04 06:06:42;;;;;;;8.80;5.22;;;;;;;-141.50;100.00;63355.56;5087562;28;20059;-82
2021/05/04 06:09:08;;;;;;;8.25;5.10;;;;;;;-141.50;100.00;63355.56;5083432;28;20035;-80
2021/05/04 06:11:35;;;;;;;9.70;5.32;;;;;;;-141.50;100.00;63355.56;5100154;28;20032;-80
2021/05/04 06:14:02;;;;;;;9.15;4.78;;;;;;;-141.50;100.00;63355.56;5082275;28;20052;-80
2021/05/04 06:16:28;;;;;;;9.73;4.93;;;;;;;-141.50;100.00;63355.56;5098070;28;20048;-81
2021/05/04 06:18:54;;;;;;;8.50;4.70;;;;;;;-141.50;100.00;63355.56;5072694;28;20048;-83
2021/05/04 06:21:21;;;;;;;7.05;4.47;;;;;;;-141.50;100.00;63355.56;5086244;28;20039;-81
2021/05/04 06:23:47;;;;;;;8.13;4.70;;;;;;;-141.50;100.00;63355.56;5107065;28;20081;-81
2021/05/04 06:26:13;;;;;;;9.00;4.85;;;;;;;-141.50;100.00;63355.56;5124669;28;20068;-81
2021/05/04 06:28:45;;;;;;;8.60;4.93;;;;;;;-141.50;100.00;63355.56;5113690;28;20031;-79
2021/05/04 06:31:13;;;;;;;8.38;5.25;;;;;;;-141.50;100.00;63355.56;5088540;28;20055;-82
2021/05/04 06:33:39;;;;;;;9.02;5.50;;;;;;;-141.50;100.00;63355.56;5106221;28;20047;-81
2021/05/04 06:36:06;;;;;;;6.57;4.32;;;;;;;-141.50;100.00;63355.56;5105872;28;20069;-81
2021/05/04 06:38:32;;;;;;;6.55;4.22;;;;;;;-141.50;100.00;63355.56;5114709;28;20059;-81
2021/05/04 06:41:01;;;;;;;12.85;4.00;;;;;;;-141.50;100.00;63355.56;5100110;28;20055;-82
2021/05/04 06:43:30;;;;;;;6.97;4.25;;;;;;;-141.50;100.00;63355.56;5101090;28;20036;-81
2021/05/04 06:45:57;;;;;;;8.73;4.38;;;;;;;-141.50;100.00;63355.56;5100836;28;20052;-82
2021/05/04 06:48:24;;;;;;;6.82;4.00;;;;;;;-141.50;100.00;63355.56;5099699;28;20416;-80
2021/05/04 06:50:51;;;;;;;10.77;4.80;;;;;;;-141.50;100.00;63355.56;5108659;28;20231;-81
2021/05/04 06:53:17;;;;;;;9.10;4.30;;;;;;;-141.50;100.00;63355.56;5110296;28;20067;-82
2021/05/04 06:55:46;;;;;;;7.07;4.15;;;;;;;-141.50;100.00;63355.56;5093617;28;20040;-81
2021/05/04 06:58:12;;;;;;;9.15;4.25;;;;;;;-141.50;100.00;63355.56;5102542;28;20052;-82
2021/05/04 07:00:38;;;;;;;5.50;3.85;;;;;;;-141.50;100.00;63355.56;5101061;28;20126;-77
2021/05/04 07:03:04;;;;;;;15.00;3.90;;;;;;;-141.50;100.00;63355.56;5090536;28;20055;-80
2021/05/04 07:05:31;;;;;;;8.40;4.10;;;;;;;-141.50;100.00;63355.56;5101448;28;20059;-80
2021/05/04 07:07:57;;;;;;;7.50;3.33;;;;;;;-141.50;100.00;63355.56;5106174;28;20036;-82
2021/05/04 07:10:25;;;;;;;6.53;3.35;;;;;;;-141.50;100.00;63355.56;5099593;28;20028;-80
2021/05/04 07:12:51;;;;;;;5.55;3.47;;;;;;;-141.50;100.00;63355.56;5088595;28;20043;-81
2021/05/04 07:15:19;;;;;;;5.45;3.22;;;;;;;-141.50;100.00;63355.56;5102247;28;20146;-81
2021/05/04 07:17:47;;;;;;;7.25;3.40;;;;;;;-141.50;100.00;63355.56;5071809;28;20343;-83
2021/05/04 07:20:18;;;;;;;6.28;3.15;;;;;;;-141.50;100.00;63355.56;5061222;28;20135;-80
2021/05/04 07:22:45;;;;;;;5.07;3.05;;;;;;;-141.50;100.00;63355.56;5097248;28;20032;-80
2021/05/04 07:25:12;;;;;;;8.55;2.90;;;;;;;-141.50;100.00;63355.56;5062082;28;20261;-82
2021/05/04 07:27:38;;;;;;;5.07;3.20;;;;;;;-141.50;100.00;63355.56;5096519;28;20130;-79
2021/05/04 07:30:05;;;;;;;6.50;2.80;;;;;;;-141.50;100.00;63355.56;5122134;28;20206;-80
2021/05/04 07:32:31;;;;;;;7.82;2.95;;;;;;;-141.50;100.00;63355.56;5118514;28;20065;-79
2021/05/04 07:34:58;;;;;;;6.38;3.03;;;;;;;-141.50;100.00;63355.56;5117559;28;20135;-81
2021/05/04 07:37:26;;;;;;;4.55;2.63;;;;;;;-141.50;100.00;63355.56;5100346;28;20047;-79
2021/05/04 07:39:52;;;;;;;10.77;2.50;;;;;;;-141.50;100.00;63355.56;5119463;28;20051;-79
2021/05/04 07:42:21;;;;;;;2.70;2.17;;;;;;;-141.50;100.00;63355.56;5116849;28;20043;-82
2021/05/04 07:44:47;;;;;;;3.47;2.30;;;;;;;-141.50;100.00;63355.56;5099632;28;20077;-80
2021/05/04 07:47:13;;;;;;;2.97;2.20;;;;;;;-141.50;100.00;63355.56;5118028;28;20117;-80
2021/05/04 07:49:45;;;;;;;5.20;2.38;;;;;;;-141.50;100.00;63355.56;5098380;28;20050;-80
2021/05/04 07:52:11;;;;;;;4.55;2.22;;;;;;;-141.50;100.00;63355.56;5099593;28;20035;-80
2021/05/04 07:54:39;;;;;;;3.10;2.10;;;;;;;-141.50;100.00;63355.56;5080600;28;20561;-80
2021/05/04 07:57:06;;;;;;;6.95;2.30;;;;;;;-141.50;100.00;63355.56;5095492;28;20040;-81
2021/05/04 07:59:32;;;;;;;4.97;2.30;;;;;;;-141.50;100.00;63355.56;5099588;28;20040;-82
2021/05/04 08:01:59;;;;;;;3.10;2.17;;;;;;;-141.50;100.00;63355.56;5102083;28;20044;-82
2021/05/04 08:04:26;;;;;;;4.07;1.98;;;;;;;-141.50;100.00;63355.56;5101852;28;20052;-79
2021/05/04 08:06:52;;;;;;;7.57;2.40;;;;;;;-141.50;100.00;63355.56;5097701;28;20043;-78
2021/05/04 08:09:18;;;;;;;7.32;2.47;;;;;;;-141.50;100.00;63355.56;5111515;28;20375;-80
2021/05/04 08:11:46;;;;;;;3.53;2.38;;;;;;;-141.50;100.00;63355.56;5116007;28;20067;-82
2021/05/04 08:14:15;;;;;;;3.17;2.00;;;;;;;-141.50;100.00;63355.56;5099574;28;20052;-81
2021/05/04 08:16:41;;;;;;;7.95;2.08;;;;;;;-141.50;100.00;63355.56;5079389;28;20052;-80
2021/05/04 08:19:07;;;;;;;6.00;2.30;;;;;;;-141.50;100.00;63355.56;5095642;28;20355;-80
2021/05/04 08:21:35;;;;;;;4.55;2.22;;;;;;;-141.50;100.00;63355.56;5105152;28;20093;-80
2021/05/04 08:24:05;;;;;;;5.75;2.20;;;;;;;-141.50;100.00;63355.56;5093602;28;20400;-81
2021/05/04 08:26:33;;;;;;;6.30;2.28;;;;;;;-141.50;100.00;63355.56;5082318;28;20048;-81
2021/05/04 08:28:59;;;;;;;6.60;2.30;;;;;;;-141.50;100.00;63355.56;5098354;28;20080;-80
2021/05/04 08:31:26;;;;;;;5.30;2.50;;;;;;;-141.50;100.00;63355.56;5106929;28;20118;-80
2021/05/04 08:33:52;;;;;;;5.90;2.38;;;;;;;-141.50;100.00;63355.56;5110318;28;20043;-81
2021/05/04 08:36:20;;;;;;;9.65;2.20;;;;;;;-141.50;100.00;63355.56;5128306;28;20101;-78
2021/05/04 08:38:46;;;;;;;7.65;2.30;;;;;;;-141.50;100.00;63355.56;5107865;28;20116;-78
2021/05/04 08:41:14;;;;;;;7.85;2.38;;;;;;;-141.50;100.00;63355.56;5107157;28;20055;-79
2021/05/04 08:43:45;;;;;;;4.97;2.00;;;;;;;-141.50;100.00;63355.56;5103674;28;20071;-80
2021/05/04 08:46:11;;;;;;;8.48;1.95;;;;;;;-141.50;100.00;63355.56;5124897;28;20486;-78
2021/05/04 08:48:38;;;;;;;5.55;2.15;;;;;;;-141.50;100.00;63355.56;5095070;28;20047;-84
2021/05/04 08:51:09;;;;;;;8.15;2.00;;;;;;;-141.50;100.00;63355.56;5077826;28;20047;-79
2021/05/04 08:53:55;;;;;;;8.60;2.17;;;;;;;-141.50;100.00;63355.56;5097903;28;20043;-80
2021/05/04 08:56:21;;;;;;;4.28;2.00;;;;;;;-141.50;100.00;63355.56;5095243;28;20043;-81
2021/05/04 08:58:50;;;;;;;7.45;1.85;;;;;;;-141.50;100.00;63355.56;5093527;28;20071;-82
2021/05/04 09:01:16;;;;;;;8.25;2.10;;;;;;;-141.50;100.00;63355.56;5113114;28;20053;-81
2021/05/04 09:03:51;;;;;;;7.57;1.85;;;;;;;-141.50;100.00;63355.56;5112867;28;20048;-80
2021/05/04 09:06:44;;;;;;;4.00;2.25;;;;;;;-141.50;100.00;63355.56;5078918;28;20043;-80
2021/05/04 09:14:32;;;;;;;6.20;1.63;;;;;;;-141.50;100.00;63355.56;5111597;28;20045;-79
2021/05/04 09:17:21;;;;;;;3.45;1.60;;;;;;;-141.50;100.00;63355.56;5093107;28;20046;-82
2021/05/04 09:20:05;;;;;;;4.70;1.85;;;;;;;-141.50;100.00;63355.56;5079861;28;20040;-84
2021/05/04 09:22:35;;;;;;;5.10;1.77;;;;;;;-141.50;100.00;63355.56;5096631;28;20097;-83
2021/05/04 09:25:03;;;;;;;3.58;1.42;;;;;;;-141.50;100.00;63355.56;5062971;28;20139;-83
2021/05/04 09:27:29;;;;;;;5.18;1.50;;;;;;;-141.50;100.00;63355.56;5080717;28;20435;-82
2021/05/04 09:29:58;;;;;;;6.32;1.63;;;;;;;-141.50;100.00;63355.56;5089740;28;20074;-82
2021/05/04 09:32:46;;;;;;;2.20;1.30;;;;;;;-141.50;100.00;63355.56;5116316;28;20046;-83
2021/05/04 09:35:13;;;;;;;4.45;1.50;;;;;;;-141.50;100.00;63355.56;5081651;28;20048;-83
2021/05/04 09:37:43;;;;;;;11.68;1.42;;;;;;;-141.50;100.00;63355.56;5081992;28;20051;-85
2021/05/04 09:40:26;;;;;;;3.87;1.50;;;;;;;-141.50;100.00;63355.56;5081359;28;20113;-83
2021/05/04 09:43:01;;;;;;;5.50;1.50;;;;;;;-141.50;100.00;63355.56;5096058;28;20044;-80
2021/05/04 09:45:28;;;;;;;8.43;1.70;;;;;;;-141.50;100.00;63355.56;5100084;28;20415;-84
2021/05/04 09:48:20;;;;;;;9.75;1.50;;;;;;;-141.50;100.00;63355.56;5081380;28;20048;-86
2021/05/04 09:51:11;;;;;;;4.15;1.70;;;;;;;-141.50;100.00;63355.56;5102944;28;20074;-82
2021/05/04 09:56:33;;;;;;;7.00;1.83;;;;;;;-141.50;100.00;63355.56;5100433;28;20539;-81
2021/05/04 09:58:59;;;;;;;4.45;1.50;;;;;;;-141.50;100.00;63355.56;5098723;28;20070;-83
2021/05/04 10:01:25;;;;;;;8.57;1.50;;;;;;;-141.50;100.00;63355.56;5101499;28;20043;-81
2021/05/04 10:03:52;;;;;;;2.63;1.55;;;;;;;-141.50;100.00;63355.56;5101320;28;20056;-80
2021/05/04 10:06:21;;;;;;;6.65;1.42;;;;;;;-141.50;100.00;63355.56;5099547;28;20101;-81
2021/05/04 10:08:49;;;;;;;4.32;1.35;;;;;;;-141.50;100.00;63355.56;5104283;28;20043;-84
2021/05/04 10:11:19;;;;;;;5.15;1.52;;;;;;;-141.50;100.00;63355.56;5101092;28;20479;-81
2021/05/04 10:13:57;;;;;;;5.28;1.50;;;;;;;-141.50;100.00;63355.56;5101667;28;20040;-81
2021/05/04 10:16:28;;;;;;;5.95;1.67;;;;;;;-141.50;100.00;63355.56;5085975;28;20479;-81
2021/05/04 10:19:03;;;;;;;4.00;1.55;;;;;;;-141.50;100.00;63355.56;5105509;28;20094;-80
2021/05/04 10:21:31;;;;;;;5.13;1.55;;;;;;;-141.50;100.00;63355.56;5101961;28;20048;-87
2021/05/04 10:24:00;;;;;;;2.47;1.23;;;;;;;-141.50;100.00;63355.56;5104133;28;20466;-85
2021/05/04 10:26:32;;;;;;;3.40;1.50;;;;;;;-141.50;100.00;63355.56;5105577;28;20051;-81
2021/05/04 10:29:02;;;;;;;7.30;1.60;;;;;;;-141.50;100.00;63355.56;5093491;28;20046;-82
2021/05/04 10:31:43;;;;;;;9.90;1.73;;;;;;;-141.50;100.00;63355.56;5086152;28;20044;-86
2021/05/04 10:34:34;;;;;;;4.82;1.90;;;;;;;-141.50;100.00;63355.56;5113987;28;20035;-82
2021/05/04 10:37:12;;;;;;;7.90;1.60;;;;;;;-141.50;100.00;63355.56;5089773;28;20432;-81
2021/05/04 10:39:44;;;;;;;8.18;1.70;;;;;;;-141.50;100.00;63355.56;5103762;28;20083;-81
2021/05/04 10:42:16;;;;;;;4.50;1.58;;;;;;;-141.50;100.00;63355.56;5081070;28;20044;-79
2021/05/04 10:44:53;;;;;;;2.97;1.58;;;;;;;-141.50;100.00;63355.56;5082316;28;20043;-83
2021/05/04 10:47:43;;;;;;;9.50;1.88;;;;;;;-141.50;100.00;63355.56;5098185;28;20050;-81
2021/05/04 10:50:16;;;;;;;5.25;1.50;;;;;;;-141.50;100.00;63355.56;5083758;28;20066;-84
2021/05/04 10:53:03;;;;;;;3.45;1.50;;;;;;;-141.50;100.00;63355.56;5102350;28;20039;-85
2021/05/04 10:55:51;;;;;;;3.78;1.60;;;;;;;-141.50;100.00;63355.56;5082582;28;20609;-85
2021/05/04 10:58:18;;;;;;;5.15;1.75;;;;;;;-141.50;100.00;63355.56;5097645;28;20050;-81
2021/05/04 11:01:06;;;;;;;6.95;1.60;;;;;;;-141.50;100.00;63355.56;5098810;28;20049;-84
2021/05/04 11:03:32;;;;;;;7.68;1.70;;;;;;;-141.50;100.00;63355.56;5081334;28;20047;-83
2021/05/04 11:06:11;;;;;;;3.80;1.70;;;;;;;-141.50;100.00;63355.56;5099299;28;20039;-84
2021/05/04 11:08:47;;;;;;;11.30;1.80;;;;;;;-141.50;100.00;63355.56;5097944;28;20047;-82
2021/05/04 11:11:24;;;;;;;7.82;2.00;;;;;;;-141.50;100.00;63355.56;5078270;28;20047;-85
2021/05/04 11:14:14;;;;;;;6.10;1.63;;;;;;;-141.50;100.00;63355.56;5080075;28;20046;-85
2021/05/04 11:17:01;;;;;;;8.43;2.35;;;;;;;-141.50;100.00;63355.56;5062406;28;20052;-84
2021/05/04 11:19:32;;;;;;;3.58;1.80;;;;;;;-141.50;100.00;63355.56;5093715;28;20078;-83
2021/05/04 11:22:00;;;;;;;5.88;1.75;;;;;;;-141.50;100.00;63355.56;5080149;28;20096;-83